Terminal Aerodrome Forecast
Issued by NWS Quad Cities IA IL

Home | Current Version | Previous Version | Text Only | Print | Product List | Glossary On
Versions: 1 2 3 4 5 6 7 8 9 10 11 12 13 14 15 16 17
000
FTUS43 KDVN 252300
TAFMLI
TAF
KMLI 252320Z 2600/2624 06010KT 1/2SM SN FZFG VV010
      TEMPO 2600/2601 1/4SM +SN FZFG
     FM260200 03012G20KT 2SM -SN OVC006
     FM260800 02011KT P6SM -SN OVC007
     FM261200 36012KT P6SM OVC015
     FM261900 33012KT P6SM OVC050=

USA.gov is the U.S. government's official web portal to all federal, state and local government web resources and services.